createdAt,value
2022-11-09T00:00:34.310Z,78.44
2022-11-09T00:01:34.279Z,78.23
2022-11-09T00:02:34.269Z,78.74
2022-11-09T00:03:34.250Z,78.74
2022-11-09T00:04:34.244Z,79.04
2022-11-09T00:05:34.231Z,78.74
2022-11-09T00:06:34.315Z,79.25
2022-11-09T00:07:34.211Z,79.75
2022-11-09T00:08:34.291Z,79.65
2022-11-09T00:09:34.263Z,79.65
2022-11-09T00:10:34.179Z,79.55
2022-11-09T00:11:34.161Z,79.35
2022-11-09T00:12:34.170Z,79.35
2022-11-09T00:13:34.141Z,79.25
2022-11-09T00:14:34.240Z,79.55
2022-11-09T00:15:34.128Z,79.69
2022-11-09T00:16:34.103Z,79.75
2022-11-09T00:17:34.110Z,79.55
2022-11-09T00:18:34.091Z,79.35
2022-11-09T00:19:34.072Z,79.55
2022-11-09T00:20:34.062Z,79.04
2022-11-09T00:21:34.051Z,79.14
2022-11-09T00:22:34.042Z,79.14
2022-11-09T00:23:34.052Z,79.04
2022-11-09T00:24:34.019Z,78.84
2022-11-09T00:25:34.002Z,79.04
2022-11-09T00:26:33.992Z,78.53
2022-11-09T00:27:33.980Z,79.04
2022-11-09T00:28:33.971Z,79.35
2022-11-09T00:29:33.984Z,78.94
2022-11-09T00:30:33.950Z,79.04
2022-11-09T00:31:33.941Z,79.25
2022-11-09T00:32:33.921Z,79.65
2022-11-09T00:33:33.930Z,79.65
2022-11-09T00:34:33.901Z,79.45
2022-11-09T00:35:34.122Z,79.75
2022-11-09T00:36:33.883Z,79.65
2022-11-09T00:37:33.944Z,79.55
2022-11-09T00:38:33.861Z,79.35
2022-11-09T00:39:33.852Z,79.45
2022-11-09T00:40:33.832Z,80.60
2022-11-09T00:41:33.841Z,80.36
2022-11-09T00:42:33.822Z,80.57
2022-11-09T00:43:34.132Z,80.91
2022-11-09T00:44:33.792Z,81.52
2022-11-09T00:45:33.787Z,83.14
2022-11-09T00:46:33.770Z,83.95
2022-11-09T00:47:33.780Z,84.05
2022-11-09T00:48:33.744Z,84.05
2022-11-09T00:49:33.732Z,85.17
2022-11-09T00:50:33.723Z,85.47
2022-11-09T00:51:33.752Z,86.59
2022-11-09T00:52:33.703Z,86.80
2022-11-09T00:53:33.713Z,87.40
2022-11-09T00:54:33.673Z,87.40
2022-11-09T00:55:33.665Z,87.92
2022-11-09T00:56:33.653Z,88.42
2022-11-09T00:57:33.643Z,88.62
2022-11-09T00:58:33.633Z,89.23
2022-11-09T00:59:33.653Z,89.13
2022-11-09T01:00:33.604Z,88.58
2022-11-09T01:01:33.626Z,87.87
2022-11-09T01:02:33.583Z,88.93
2022-11-09T01:03:33.574Z,89.54
2022-11-09T01:04:33.573Z,89.43
2022-11-09T01:05:33.574Z,89.94
2022-11-09T01:06:34.136Z,90.25
2022-11-09T01:07:33.533Z,90.55
2022-11-09T01:08:33.533Z,90.51
2022-11-09T01:09:33.512Z,90.41
2022-11-09T01:10:33.494Z,92.07
2022-11-09T01:11:33.504Z,91.42
2022-11-09T01:12:33.473Z,91.97
2022-11-09T01:13:33.465Z,92.38
2022-11-09T01:14:33.451Z,93.49
2022-11-09T01:15:33.444Z,93.40
2022-11-09T01:16:33.444Z,93.60
2022-11-09T01:17:33.422Z,94.21
2022-11-09T01:18:33.405Z,94.00
2022-11-09T01:19:33.393Z,93.49
2022-11-09T01:20:33.384Z,93.70
2022-11-09T01:21:33.375Z,93.80
2022-11-09T01:22:33.384Z,93.60
2022-11-09T01:23:33.352Z,94.51
2022-11-09T01:24:33.334Z,94.96
2022-11-09T01:25:33.335Z,95.32
2022-11-09T01:26:33.315Z,95.02
2022-11-09T01:27:33.305Z,94.82
2022-11-09T01:28:33.304Z,95.12
2022-11-09T01:29:33.284Z,94.92
2022-11-09T01:30:33.266Z,95.22
2022-11-09T01:31:33.263Z,95.78
2022-11-09T01:32:33.247Z,95.94
2022-11-09T01:33:33.263Z,96.23
2022-11-09T01:34:33.225Z,96.38
2022-11-09T01:35:33.217Z,97.20
2022-11-09T01:36:33.203Z,97.20
2022-11-09T01:37:33.197Z,97.85
2022-11-09T01:38:33.184Z,98.46
2022-11-09T01:39:33.224Z,98.97
2022-11-09T01:40:33.156Z,99.38
2022-11-09T01:41:33.146Z,99.99
2022-11-09T01:42:33.136Z,99.99
2022-11-09T01:43:33.132Z,99.99
2022-11-09T01:44:33.108Z,99.99
2022-11-09T01:45:33.125Z,99.99
2022-11-09T01:46:33.086Z,99.99
2022-11-09T01:47:33.075Z,99.99
2022-11-09T01:48:33.065Z,99.99
2022-11-09T01:49:33.056Z,99.99
2022-11-09T01:50:33.043Z,99.99
2022-11-09T01:51:33.066Z,99.99
2022-11-09T01:52:33.025Z,99.99
2022-11-09T01:53:33.013Z,99.99
2022-11-09T01:54:32.996Z,99.99
2022-11-09T01:55:32.986Z,99.99
2022-11-09T01:56:32.975Z,99.99
2022-11-09T01:57:32.986Z,99.99
2022-11-09T01:58:32.960Z,99.99
2022-11-09T01:59:32.946Z,99.99
2022-11-09T02:00:32.926Z,99.99
2022-11-09T02:01:33.025Z,99.99
2022-11-09T02:02:32.936Z,99.99
2022-11-09T02:03:32.907Z,99.99
2022-11-09T02:04:32.886Z,99.99
2022-11-09T02:05:32.875Z,99.99
2022-11-09T02:06:32.952Z,99.99
2022-11-09T02:07:32.856Z,99.99
2022-11-09T02:08:32.872Z,99.99
2022-11-09T02:09:32.834Z,99.99
2022-11-09T02:10:32.816Z,99.99
2022-11-09T02:11:32.814Z,99.99
2022-11-09T02:12:32.804Z,99.99
2022-11-09T02:13:32.790Z,99.99
2022-11-09T02:14:32.786Z,99.99
2022-11-09T02:15:32.767Z,99.99
2022-11-09T02:16:32.750Z,99.99
2022-11-09T02:17:32.745Z,99.99
2022-11-09T02:18:32.725Z,99.99
2022-11-09T02:19:32.771Z,99.99
2022-11-09T02:20:32.705Z,99.99
2022-11-09T02:21:32.696Z,99.99
2022-11-09T02:22:32.688Z,99.99
2022-11-09T02:23:32.676Z,99.99
2022-11-09T02:24:32.655Z,99.99
2022-11-09T02:25:32.695Z,99.99
2022-11-09T02:26:32.638Z,99.99
2022-11-09T02:27:32.625Z,99.99
2022-11-09T02:28:32.616Z,99.99
2022-11-09T02:29:32.606Z,99.99
2022-11-09T02:30:32.595Z,99.99
2022-11-09T02:31:32.605Z,99.99
2022-11-09T02:32:32.576Z,99.99
2022-11-09T02:33:32.556Z,99.99
2022-11-09T02:34:32.547Z,99.99
2022-11-09T02:35:32.535Z,99.99
2022-11-09T02:36:32.526Z,99.99
2022-11-09T02:37:32.535Z,99.99
2022-11-09T02:38:32.505Z,99.99
2022-11-09T02:39:32.495Z,99.99
2022-11-09T02:40:32.476Z,99.99
2022-11-09T02:41:32.465Z,99.99
2022-11-09T02:42:32.486Z,99.99
2022-11-09T02:43:32.446Z,99.99
2022-11-09T02:44:32.435Z,99.99
2022-11-09T02:45:32.437Z,99.99
2022-11-09T02:46:32.406Z,99.99
2022-11-09T02:47:32.404Z,99.99
2022-11-09T02:48:32.416Z,99.99
2022-11-09T02:49:32.387Z,99.99
2022-11-09T02:50:32.365Z,99.99
2022-11-09T02:51:32.356Z,99.99
2022-11-09T02:52:32.355Z,99.99
2022-11-09T02:53:32.336Z,99.99
2022-11-09T02:54:32.347Z,99.99
2022-11-09T02:55:32.313Z,99.99
2022-11-09T02:56:32.986Z,99.99
2022-11-09T02:57:32.286Z,99.99
2022-11-09T02:58:32.277Z,99.99
2022-11-09T02:59:32.266Z,99.99
2022-11-09T03:00:32.286Z,99.99
2022-11-09T03:01:32.326Z,99.99
2022-11-09T03:02:32.236Z,99.99
2022-11-09T03:03:32.223Z,99.99
2022-11-09T03:04:32.208Z,99.99
2022-11-09T03:05:32.197Z,99.99
2022-11-09T03:06:32.257Z,99.99
2022-11-09T03:07:32.177Z,99.99
2022-11-09T03:08:32.168Z,99.99
2022-11-09T03:09:32.156Z,99.99
2022-11-09T03:10:32.139Z,99.99
2022-11-09T03:11:32.156Z,99.99
2022-11-09T03:12:32.116Z,99.99
2022-11-09T03:13:32.106Z,99.99
2022-11-09T03:14:32.096Z,99.99
2022-11-09T03:15:32.085Z,99.99
2022-11-09T03:16:32.075Z,99.99
2022-11-09T03:17:32.084Z,99.99
2022-11-09T03:18:32.048Z,99.99
2022-11-09T03:19:32.036Z,99.99
2022-11-09T03:20:32.026Z,99.99
2022-11-09T03:21:32.017Z,99.99
2022-11-09T03:22:32.037Z,99.99
2022-11-09T03:23:31.996Z,99.99
2022-11-09T03:24:31.985Z,99.99
2022-11-09T03:25:31.976Z,99.99
2022-11-09T03:26:31.958Z,99.99
2022-11-09T03:27:31.955Z,99.99
2022-11-09T03:28:31.955Z,99.99
2022-11-09T03:29:31.928Z,99.99
2022-11-09T03:30:31.915Z,99.99
2022-11-09T03:31:31.908Z,99.99
2022-11-09T03:32:31.910Z,99.99
2022-11-09T03:33:31.907Z,99.99
2022-11-09T03:34:31.884Z,99.99
2022-11-09T03:35:31.859Z,99.99
2022-11-09T03:36:31.848Z,99.99
2022-11-09T03:37:31.866Z,99.99
2022-11-09T03:38:31.819Z,99.99
2022-11-09T03:39:31.837Z,99.99
2022-11-09T03:40:31.820Z,99.99
2022-11-09T03:41:31.797Z,99.99
2022-11-09T03:42:31.794Z,99.85
2022-11-09T03:43:31.779Z,99.85
2022-11-09T03:44:31.785Z,99.99
2022-11-09T03:45:31.751Z,99.99
2022-11-09T03:46:31.736Z,99.99
2022-11-09T03:47:31.726Z,99.99
2022-11-09T03:48:31.716Z,99.99
2022-11-09T03:49:31.710Z,99.99
2022-11-09T03:50:31.709Z,99.99
2022-11-09T03:51:31.698Z,99.99
2022-11-09T03:52:31.681Z,99.99
2022-11-09T03:53:31.682Z,99.95
2022-11-09T03:54:31.639Z,99.64
2022-11-09T03:55:31.639Z,99.95
2022-11-09T03:56:31.638Z,99.95
2022-11-09T03:57:31.617Z,99.99
2022-11-09T03:58:31.598Z,99.99
2022-11-09T03:59:31.588Z,99.99
2022-11-09T04:00:31.578Z,99.99
2022-11-09T04:01:31.593Z,99.99
2022-11-09T04:02:31.579Z,99.99
2022-11-09T04:03:31.545Z,99.99
2022-11-09T04:04:31.534Z,99.99
2022-11-09T04:05:31.527Z,99.99
2022-11-09T04:06:31.561Z,99.99
2022-11-09T04:07:31.499Z,99.99
2022-11-09T04:08:31.499Z,99.99
2022-11-09T04:09:31.498Z,99.99
2022-11-09T04:10:31.458Z,99.99
2022-11-09T04:11:31.458Z,99.99
2022-11-09T04:12:31.447Z,99.99
2022-11-09T04:13:31.448Z,99.99
2022-11-09T04:14:31.418Z,99.99
2022-11-09T04:15:31.408Z,99.99
2022-11-09T04:16:31.391Z,99.99
2022-11-09T04:17:31.389Z,99.99
2022-11-09T04:18:31.368Z,99.99
2022-11-09T04:19:31.410Z,99.99
2022-11-09T04:20:31.358Z,99.99
2022-11-09T04:21:31.339Z,99.99
2022-11-09T04:22:31.339Z,99.99
2022-11-09T04:23:31.320Z,99.99
2022-11-09T04:24:31.309Z,99.99
2022-11-09T04:25:31.320Z,99.99
2022-11-09T04:26:31.280Z,99.99
2022-11-09T04:27:31.269Z,99.99
2022-11-09T04:28:31.258Z,99.99
2022-11-09T04:29:31.260Z,99.99
2022-11-09T04:30:31.247Z,99.99
2022-11-09T04:31:31.601Z,99.99
2022-11-09T04:32:31.220Z,99.99
2022-11-09T04:33:31.209Z,99.99
2022-11-09T04:34:31.189Z,99.99
2022-11-09T04:35:31.180Z,99.99
2022-11-09T04:36:31.168Z,99.99
2022-11-09T04:37:31.189Z,99.99
2022-11-09T04:38:31.152Z,99.99
2022-11-09T04:39:31.140Z,99.99
2022-11-09T04:40:31.135Z,99.99
2022-11-09T04:41:31.110Z,99.99
2022-11-09T04:42:31.110Z,99.99
2022-11-09T04:43:31.111Z,99.99
2022-11-09T04:44:31.080Z,99.99
2022-11-09T04:45:31.080Z,99.99
2022-11-09T04:46:31.060Z,99.99
2022-11-09T04:47:31.041Z,99.99
2022-11-09T04:48:31.041Z,99.99
2022-11-09T04:49:31.043Z,99.99
2022-11-09T04:50:31.020Z,99.99
2022-11-09T04:51:31.000Z,99.99
2022-11-09T04:52:31.001Z,99.99
2022-11-09T04:53:30.986Z,99.99
2022-11-09T04:54:30.971Z,99.99
2022-11-09T04:55:30.972Z,99.99
2022-11-09T04:56:30.949Z,99.99
2022-11-09T04:57:30.932Z,99.99
2022-11-09T04:58:30.920Z,99.99
2022-11-09T04:59:30.933Z,99.99
2022-11-09T05:00:30.903Z,99.99
2022-11-09T05:01:30.890Z,99.99
2022-11-09T05:02:30.895Z,99.99
2022-11-09T05:03:30.907Z,99.99
2022-11-09T05:04:30.862Z,99.99
2022-11-09T05:05:30.861Z,99.99
2022-11-09T05:06:32.098Z,99.99
2022-11-09T05:07:30.820Z,99.99
2022-11-09T05:08:30.811Z,99.99
2022-11-09T05:09:30.792Z,99.99
2022-11-09T05:10:30.812Z,99.99
2022-11-09T05:11:30.772Z,99.99
2022-11-09T05:12:30.772Z,99.99
2022-11-09T05:13:30.752Z,99.99
2022-11-09T05:14:30.754Z,99.99
2022-11-09T05:15:30.730Z,99.99
2022-11-09T05:16:30.752Z,99.99
2022-11-09T05:17:30.711Z,99.99
2022-11-09T05:18:30.701Z,99.99
2022-11-09T05:19:30.682Z,99.99
2022-11-09T05:20:30.685Z,99.99
2022-11-09T05:21:30.682Z,99.99
2022-11-09T05:22:30.663Z,99.99
2022-11-09T05:23:30.643Z,99.99
2022-11-09T05:24:30.631Z,99.99
2022-11-09T05:25:30.613Z,99.99
2022-11-09T05:26:30.606Z,99.99
2022-11-09T05:27:30.621Z,99.99
2022-11-09T05:28:30.583Z,99.99
2022-11-09T05:29:30.571Z,99.99
2022-11-09T05:30:30.563Z,99.99
2022-11-09T05:31:30.550Z,99.99
2022-11-09T05:32:30.572Z,99.99
2022-11-09T05:33:30.522Z,99.99
2022-11-09T05:34:30.515Z,99.99
2022-11-09T05:35:30.504Z,99.99
2022-11-09T05:36:30.493Z,99.99
2022-11-09T05:37:30.482Z,99.99
2022-11-09T05:38:30.495Z,99.99
2022-11-09T05:39:30.453Z,99.99
2022-11-09T05:40:30.451Z,99.99
2022-11-09T05:41:30.432Z,99.99
2022-11-09T05:42:30.432Z,99.99
2022-11-09T05:43:30.413Z,99.99
2022-11-09T05:44:30.446Z,99.99
2022-11-09T05:45:42.059Z,99.99
2022-11-09T05:46:31.385Z,99.99
2022-11-09T05:47:30.372Z,99.99
2022-11-09T05:48:30.357Z,99.99
2022-11-09T05:49:30.344Z,99.99
2022-11-09T05:50:30.354Z,99.99
2022-11-09T05:51:30.324Z,99.99
2022-11-09T05:52:30.373Z,99.99
2022-11-09T05:53:30.305Z,99.99
2022-11-09T05:54:30.352Z,99.99
2022-11-09T05:55:30.279Z,99.99
2022-11-09T05:56:30.296Z,99.99
2022-11-09T05:57:30.253Z,99.99
2022-11-09T05:58:30.251Z,99.99
2022-11-09T05:59:30.242Z,99.99
2022-11-09T06:00:30.223Z,99.99
2022-11-09T06:01:30.213Z,99.99
2022-11-09T06:02:30.252Z,99.99
2022-11-09T06:03:30.183Z,99.99
2022-11-09T06:04:30.185Z,99.99
2022-11-09T06:05:30.172Z,99.99
2022-11-09T06:06:30.268Z,99.99
2022-11-09T06:07:30.153Z,99.99
2022-11-09T06:08:30.134Z,99.99
2022-11-09T06:09:30.113Z,99.99
2022-11-09T06:10:30.113Z,99.99
2022-11-09T06:11:30.098Z,99.99
2022-11-09T06:12:30.115Z,99.99
2022-11-09T06:13:30.074Z,99.99
2022-11-09T06:14:30.073Z,99.99
2022-11-09T06:15:30.053Z,99.99
2022-11-09T06:16:37.099Z,99.99
2022-11-09T06:17:30.034Z,99.99
2022-11-09T06:18:30.049Z,99.99
2022-11-09T06:19:30.009Z,99.99
2022-11-09T06:20:30.004Z,99.99
2022-11-09T06:21:29.990Z,99.99
2022-11-09T06:22:29.978Z,99.99
2022-11-09T06:23:29.960Z,99.99
2022-11-09T06:24:29.978Z,99.99
2022-11-09T06:25:29.939Z,99.99
2022-11-09T06:26:29.931Z,99.99
2022-11-09T06:27:29.917Z,99.99
2022-11-09T06:28:29.909Z,99.99
2022-11-09T06:29:29.892Z,99.99
2022-11-09T06:30:29.901Z,99.99
2022-11-09T06:31:29.869Z,99.99
2022-11-09T06:32:29.861Z,99.99
2022-11-09T06:33:29.852Z,99.99
2022-11-09T06:34:29.840Z,99.99
2022-11-09T06:35:29.876Z,99.99
2022-11-09T06:36:29.819Z,99.99
2022-11-09T06:37:29.800Z,99.99
2022-11-09T06:38:29.790Z,99.99
2022-11-09T06:39:29.780Z,99.99
2022-11-09T06:40:29.778Z,99.99
2022-11-09T06:41:29.781Z,99.99
2022-11-09T06:42:29.960Z,99.99
2022-11-09T06:43:29.739Z,99.99
2022-11-09T06:44:29.734Z,99.99
2022-11-09T06:45:29.726Z,99.99
2022-11-09T06:46:29.717Z,99.99
2022-11-09T06:47:29.721Z,99.99
2022-11-09T06:48:29.680Z,99.99
2022-11-09T06:49:29.669Z,99.99
2022-11-09T06:50:29.659Z,99.99
2022-11-09T06:51:29.642Z,99.99
2022-11-09T06:52:29.662Z,99.99
2022-11-09T06:53:29.622Z,99.99
2022-11-09T06:54:29.611Z,99.99
2022-11-09T06:55:29.601Z,99.99
2022-11-09T06:56:29.598Z,99.99
2022-11-09T06:57:29.599Z,99.99
2022-11-09T06:58:29.591Z,99.99
2022-11-09T06:59:29.651Z,99.99
2022-11-09T07:00:29.551Z,99.99
2022-11-09T07:01:29.613Z,99.99
2022-11-09T07:02:29.522Z,99.99
2022-11-09T07:03:29.511Z,99.99
2022-11-09T07:04:29.519Z,99.99
2022-11-09T07:05:29.491Z,99.99
2022-11-09T07:06:29.522Z,99.99
2022-11-09T07:07:29.519Z,99.99
2022-11-09T07:08:29.461Z,99.99
2022-11-09T07:09:29.461Z,99.99
2022-11-09T07:10:29.467Z,99.99
2022-11-09T07:11:29.420Z,99.99
2022-11-09T07:12:29.412Z,99.99
2022-11-09T07:13:29.401Z,99.99
2022-11-09T07:14:29.401Z,99.99
2022-11-09T07:15:29.394Z,99.99
2022-11-09T07:16:29.370Z,99.99
2022-11-09T07:17:29.353Z,99.99
2022-11-09T07:18:29.342Z,99.99
2022-11-09T07:19:29.337Z,99.99
2022-11-09T07:20:29.319Z,99.99
2022-11-09T07:21:29.322Z,99.99
2022-11-09T07:22:29.302Z,99.99
2022-11-09T07:23:29.298Z,99.99
2022-11-09T07:24:29.272Z,99.99
2022-11-09T07:25:29.263Z,99.99
2022-11-09T07:26:29.271Z,99.99
2022-11-09T07:27:29.247Z,99.99
2022-11-09T07:28:29.232Z,99.99
2022-11-09T07:29:29.221Z,99.99
2022-11-09T07:30:29.238Z,99.99
2022-11-09T07:31:29.195Z,99.99
2022-11-09T07:33:01.891Z,99.99
2022-11-09T07:33:30.172Z,99.99
2022-11-09T07:34:29.163Z,99.99
2022-11-09T07:35:29.153Z,99.99
2022-11-09T07:36:29.142Z,99.99
2022-11-09T07:37:29.133Z,99.99
2022-11-09T07:38:29.164Z,99.99
2022-11-09T07:39:29.103Z,99.99
2022-11-09T07:40:29.189Z,99.99
2022-11-09T07:41:34.327Z,99.99
2022-11-09T07:42:30.071Z,99.99
2022-11-09T07:43:29.065Z,99.99
2022-11-09T07:44:29.073Z,99.99
2022-11-09T07:45:29.036Z,99.99
2022-11-09T07:46:29.034Z,99.99
2022-11-09T07:47:29.013Z,99.99
2022-11-09T07:48:29.003Z,99.99
2022-11-09T07:49:28.990Z,99.99
2022-11-09T07:50:29.079Z,99.99
2022-11-09T07:51:28.963Z,99.99
2022-11-09T07:52:28.962Z,99.99
2022-11-09T07:53:28.944Z,99.99
2022-11-09T07:54:28.934Z,99.99
2022-11-09T07:55:28.946Z,99.99
2022-11-09T07:56:28.914Z,99.99
2022-11-09T07:57:28.904Z,99.99
2022-11-09T07:58:28.905Z,99.99
2022-11-09T07:59:28.881Z,99.99
2022-11-09T08:00:28.945Z,99.99
2022-11-09T08:01:28.887Z,99.99
2022-11-09T08:02:28.914Z,99.99
2022-11-09T08:03:28.833Z,99.99
2022-11-09T08:04:28.830Z,99.99
2022-11-09T08:05:28.811Z,99.99
2022-11-09T08:06:28.883Z,99.99
2022-11-09T08:07:28.811Z,99.99
2022-11-09T08:08:28.783Z,99.99
2022-11-09T08:09:28.763Z,99.99
2022-11-09T08:10:28.828Z,99.99
2022-11-09T08:11:28.743Z,99.99
2022-11-09T08:12:31.720Z,99.99
2022-11-09T08:13:29.736Z,99.99
2022-11-09T08:14:28.714Z,99.99
2022-11-09T08:15:28.693Z,99.99
2022-11-09T08:16:32.179Z,99.99
2022-11-09T08:17:29.672Z,99.99
2022-11-09T08:18:28.683Z,99.99
2022-11-09T08:19:28.664Z,99.99
2022-11-09T08:20:28.724Z,99.99
2022-11-09T08:21:28.635Z,99.99
2022-11-09T08:22:28.628Z,99.99
2022-11-09T08:23:28.604Z,99.99
2022-11-09T08:24:28.614Z,99.99
2022-11-09T08:25:28.584Z,99.99
2022-11-09T08:26:28.583Z,99.99
2022-11-09T08:27:28.562Z,99.99
2022-11-09T08:28:28.553Z,99.99
2022-11-09T08:29:28.563Z,99.99
2022-11-09T08:30:28.619Z,99.99
2022-11-09T08:31:28.514Z,99.99
2022-11-09T08:32:28.503Z,99.99
2022-11-09T08:33:28.493Z,99.99
2022-11-09T08:34:28.482Z,99.99
2022-11-09T08:35:28.493Z,99.99
2022-11-09T08:36:28.466Z,99.99
2022-11-09T08:37:28.445Z,99.99
2022-11-09T08:38:28.444Z,99.99
2022-11-09T08:39:28.424Z,99.99
2022-11-09T08:40:28.456Z,99.99
2022-11-09T08:41:28.459Z,99.99
2022-11-09T08:42:28.393Z,99.99
2022-11-09T08:43:28.385Z,99.99
2022-11-09T08:44:28.373Z,99.99
2022-11-09T08:45:28.354Z,99.99
2022-11-09T08:46:28.354Z,99.99
2022-11-09T08:47:28.368Z,99.99
2022-11-09T08:48:28.332Z,99.99
2022-11-09T08:49:28.315Z,99.99
2022-11-09T08:50:28.306Z,99.99
2022-11-09T08:51:28.295Z,99.99
2022-11-09T08:52:28.287Z,99.99
2022-11-09T08:53:28.294Z,99.99
2022-11-09T08:54:28.294Z,99.99
2022-11-09T08:55:28.245Z,99.99
2022-11-09T08:56:28.245Z,99.99
2022-11-09T08:57:28.242Z,99.99
2022-11-09T08:58:28.222Z,99.99
2022-11-09T08:59:28.235Z,99.99
2022-11-09T09:00:28.193Z,99.99
2022-11-09T09:01:28.261Z,99.99
2022-11-09T09:02:28.167Z,99.99
2022-11-09T09:03:28.162Z,99.99
2022-11-09T09:04:28.144Z,99.99
2022-11-09T09:05:28.155Z,99.99
2022-11-09T09:06:31.147Z,99.99
2022-11-09T09:07:28.116Z,99.99
2022-11-09T09:08:28.107Z,99.99
2022-11-09T09:09:28.094Z,99.99
2022-11-09T09:10:28.095Z,99.99
2022-11-09T09:11:28.073Z,99.99
2022-11-09T09:12:28.055Z,99.99
2022-11-09T09:13:28.046Z,99.99
2022-11-09T09:14:28.034Z,99.99
2022-11-09T09:15:28.029Z,99.99
2022-11-09T09:16:28.025Z,99.99
2022-11-09T09:17:28.006Z,99.99
2022-11-09T09:18:27.986Z,99.99
2022-11-09T09:19:27.975Z,99.99
2022-11-09T09:20:27.965Z,99.99
2022-11-09T09:21:27.977Z,99.99
2022-11-09T09:22:27.945Z,99.99
2022-11-09T09:23:27.939Z,99.99
2022-11-09T09:24:27.929Z,99.99
2022-11-09T09:25:27.915Z,99.99
2022-11-09T09:26:27.897Z,99.99
2022-11-09T09:27:27.916Z,99.99
2022-11-09T09:28:27.876Z,99.99
2022-11-09T09:29:27.866Z,99.99
2022-11-09T09:30:27.857Z,99.99
2022-11-09T09:31:27.857Z,99.99
2022-11-09T09:32:27.837Z,99.99
2022-11-09T09:33:27.846Z,99.96
2022-11-09T09:34:27.806Z,99.99
2022-11-09T09:35:27.803Z,99.86
2022-11-09T09:36:27.787Z,99.99
2022-11-09T09:37:27.787Z,99.99
2022-11-09T09:38:27.757Z,99.86
2022-11-09T09:39:27.780Z,99.99
2022-11-09T09:40:27.745Z,99.99
2022-11-09T09:41:27.742Z,99.55
2022-11-09T09:42:27.717Z,99.55
2022-11-09T09:43:27.709Z,99.76
2022-11-09T09:44:27.707Z,99.76
2022-11-09T09:45:27.707Z,99.66
2022-11-09T09:46:27.676Z,99.30
2022-11-09T09:47:27.667Z,98.70
2022-11-09T09:48:27.656Z,98.90
2022-11-09T09:49:27.647Z,98.74
2022-11-09T09:50:27.725Z,99.25
2022-11-09T09:51:27.617Z,99.10
2022-11-09T09:52:27.608Z,98.95
2022-11-09T09:53:27.600Z,99.25
2022-11-09T09:54:27.591Z,99.55
2022-11-09T09:55:27.577Z,99.25
2022-11-09T09:56:27.584Z,99.66
2022-11-09T09:57:27.557Z,99.21
2022-11-09T09:58:27.549Z,99.05
2022-11-09T09:59:27.529Z,98.90
2022-11-09T10:00:27.518Z,98.60
2022-11-09T10:01:27.507Z,98.50
2022-11-09T10:02:27.538Z,98.19
2022-11-09T10:03:27.487Z,98.60
2022-11-09T10:04:27.510Z,98.60
2022-11-09T10:05:27.471Z,97.79
2022-11-09T10:06:27.529Z,98.34
2022-11-09T10:07:27.450Z,98.70
2022-11-09T10:08:27.482Z,98.09
2022-11-09T10:09:27.423Z,98.09
2022-11-09T10:10:27.409Z,98.24
2022-11-09T10:11:27.400Z,98.65
2022-11-09T10:12:27.391Z,98.74
2022-11-09T10:13:27.369Z,99.05
2022-11-09T10:14:27.388Z,99.05
2022-11-09T10:15:27.349Z,99.25
2022-11-09T10:16:27.342Z,99.15
2022-11-09T10:17:27.329Z,98.24
2022-11-09T10:18:27.320Z,98.54
2022-11-09T10:19:27.315Z,98.19
2022-11-09T10:20:27.329Z,98.39
2022-11-09T10:21:27.289Z,97.54
2022-11-09T10:22:27.280Z,96.83
2022-11-09T10:23:27.259Z,97.33
2022-11-09T10:24:27.252Z,97.69
2022-11-09T10:25:50.424Z,97.58
2022-11-09T10:26:28.240Z,97.28
2022-11-09T10:27:27.263Z,97.28
2022-11-09T10:28:27.204Z,97.53
2022-11-09T10:29:27.281Z,97.58
2022-11-09T10:30:27.180Z,98.03
2022-11-09T10:31:27.201Z,97.53
2022-11-09T10:32:27.160Z,98.03
2022-11-09T10:33:27.161Z,97.49
2022-11-09T10:34:27.205Z,97.28
2022-11-09T10:35:27.133Z,97.83
2022-11-09T10:36:27.120Z,97.69
2022-11-09T10:37:27.130Z,97.49
2022-11-09T10:38:27.092Z,97.28
2022-11-09T10:39:27.092Z,96.98
2022-11-09T10:40:27.082Z,97.58
2022-11-09T10:41:27.061Z,97.08
2022-11-09T10:42:27.060Z,97.28
2022-11-09T10:43:27.074Z,97.28
2022-11-09T10:44:27.021Z,97.38
2022-11-09T10:45:27.018Z,97.28
2022-11-09T10:46:27.003Z,97.58
2022-11-09T10:47:26.991Z,96.98
2022-11-09T10:48:26.991Z,96.88
2022-11-09T10:49:27.002Z,96.93
2022-11-09T10:50:26.963Z,96.33
2022-11-09T10:51:26.950Z,95.31
2022-11-09T10:52:26.949Z,95.62
2022-11-09T10:53:26.925Z,95.36
2022-11-09T10:54:26.911Z,96.07
2022-11-09T10:55:26.957Z,95.92
2022-11-09T10:56:29.677Z,95.21
2022-11-09T10:57:27.883Z,95.17
2022-11-09T10:58:26.870Z,93.75
2022-11-09T10:59:26.863Z,93.30
2022-11-09T11:00:26.851Z,92.60
2022-11-09T11:01:27.008Z,92.24
2022-11-09T11:02:26.846Z,92.54
2022-11-09T11:03:26.827Z,92.44
2022-11-09T11:04:26.802Z,92.74
2022-11-09T11:05:26.792Z,92.94
2022-11-09T11:06:26.772Z,92.80
2022-11-09T11:07:26.839Z,91.42
2022-11-09T11:08:26.754Z,90.98
2022-11-09T11:09:26.743Z,90.47
2022-11-09T11:10:26.743Z,90.78
2022-11-09T11:11:33.696Z,91.63
2022-11-09T11:12:27.733Z,91.69
2022-11-09T11:13:26.703Z,91.44
2022-11-09T11:14:26.683Z,89.92
2022-11-09T11:15:26.688Z,89.62
2022-11-09T11:16:26.662Z,89.42
2022-11-09T11:17:26.658Z,89.68
2022-11-09T11:18:26.664Z,87.52
2022-11-09T11:19:26.633Z,86.00
2022-11-09T11:20:26.616Z,85.40
2022-11-09T11:21:26.604Z,86.51
2022-11-09T11:22:26.600Z,85.80
2022-11-09T11:23:26.792Z,85.60
2022-11-09T11:24:26.593Z,85.30
2022-11-09T11:25:26.569Z,84.55
2022-11-09T11:26:26.555Z,85.05
2022-11-09T11:27:26.544Z,83.88
2022-11-09T11:28:26.535Z,85.56
2022-11-09T11:29:27.287Z,84.25
2022-11-09T11:30:26.505Z,84.45
2022-11-09T11:31:26.505Z,83.20
2022-11-09T11:32:26.485Z,83.84
2022-11-09T11:33:26.476Z,85.10
2022-11-09T11:34:53.561Z,85.25
2022-11-09T11:35:27.477Z,83.95
2022-11-09T11:36:26.435Z,84.51
2022-11-09T11:37:26.425Z,83.44
2022-11-09T11:38:26.416Z,83.04
2022-11-09T11:39:29.700Z,83.74
2022-11-09T11:40:26.393Z,83.84
2022-11-09T11:41:26.406Z,83.24
2022-11-09T11:42:26.366Z,82.23
2022-11-09T11:43:26.366Z,83.04
2022-11-09T11:44:26.345Z,83.91
2022-11-09T11:45:39.991Z,82.39
2022-11-09T11:46:27.346Z,81.79
2022-11-09T11:47:26.316Z,82.65
2022-11-09T11:48:26.313Z,82.35
2022-11-09T11:49:26.296Z,80.88
2022-11-09T11:50:26.276Z,81.93
2022-11-09T11:51:26.277Z,82.13
2022-11-09T11:52:26.278Z,81.93
2022-11-09T11:53:26.248Z,81.89
2022-11-09T11:54:26.238Z,82.23
2022-11-09T11:55:26.227Z,82.59
2022-11-09T11:56:26.208Z,80.94
2022-11-09T11:57:26.208Z,80.50
2022-11-09T11:58:26.207Z,79.60
2022-11-09T11:59:26.202Z,78.83
2022-11-09T12:00:26.194Z,80.58
2022-11-09T12:01:26.178Z,80.13
2022-11-09T12:02:26.229Z,79.73
2022-11-09T12:03:26.172Z,79.60
2022-11-09T12:04:31.020Z,79.09
2022-11-09T12:05:27.120Z,78.05
2022-11-09T12:06:26.101Z,77.75
2022-11-09T12:07:26.147Z,77.17
2022-11-09T12:08:26.077Z,78.12
2022-11-09T12:09:26.100Z,78.22
2022-11-09T12:10:26.058Z,78.63
2022-11-09T12:11:26.039Z,79.03
2022-11-09T12:12:26.030Z,79.43
2022-11-09T12:13:26.028Z,79.23
2022-11-09T12:14:26.010Z,79.09
2022-11-09T12:15:26.018Z,78.99
2022-11-09T12:16:25.991Z,77.95
2022-11-09T12:17:33.037Z,77.34
2022-11-09T12:18:25.991Z,77.14
2022-11-09T12:19:30.355Z,77.50
2022-11-09T12:20:27.049Z,77.28
2022-11-09T12:21:25.970Z,77.98
2022-11-09T12:22:25.941Z,78.05
2022-11-09T12:23:26.022Z,77.75
2022-11-09T12:24:25.932Z,77.84
2022-11-09T12:25:25.900Z,77.95
2022-11-09T12:26:25.921Z,77.84
2022-11-09T12:27:32.237Z,77.24
2022-11-09T12:28:26.859Z,77.44
2022-11-09T12:29:25.849Z,77.95
2022-11-09T12:30:25.834Z,78.35
2022-11-09T12:31:25.872Z,77.91
2022-11-09T12:32:25.831Z,78.21
2022-11-09T12:33:30.743Z,77.40
2022-11-09T12:34:26.792Z,77.00
2022-11-09T12:35:25.811Z,77.37
2022-11-09T12:36:25.856Z,75.99
2022-11-09T12:37:26.539Z,76.94
2022-11-09T12:38:25.857Z,76.54
2022-11-09T12:39:25.732Z,76.84
2022-11-09T12:40:25.723Z,77.14
2022-11-09T12:41:25.712Z,76.94
2022-11-09T12:42:25.716Z,76.60
2022-11-09T12:43:25.713Z,76.60
2022-11-09T12:44:25.752Z,76.20
2022-11-09T12:45:25.673Z,75.70
2022-11-09T12:46:25.662Z,75.99
2022-11-09T12:47:25.653Z,76.40
2022-11-09T12:48:25.632Z,76.16
2022-11-09T12:49:25.653Z,75.70
2022-11-09T12:50:25.612Z,75.29
2022-11-09T12:51:25.602Z,75.43
2022-11-09T12:52:25.593Z,76.03